Portada
METAR-TAF:

METAR-TAF

Aeroports :

Pattani, Tailàndia

latitud: 06-47-08N, longitud: 101-09-13E, altitud: 2 m

METAR: manca

Hora: 10:02 (03:02 UTC)

Pronòstic

L'informe es va fer fa 4 hores i 2 minuts, a les 23:00 UTC
Pronòstic vàlid del 24 a les 00 UTC al 24 a les 24 UTC
Vent 7 kt del Oest/Sud-Oest
Visibilitat: 8000 m
Escasses núvols a una alçada de 2000 ft
Probabilitat 30% :
Temporalment
l' 24 a les 07 UTC al 24 a les 13 UTC
Vent 10 kt amb direcció variable amb ràfegues de 20 kt
Visibilitat: 5000 m
Escasses núvols a una alçada de 1600 ft, Cumulonimbus.
Núvols disperses a una alçada de 1800 ft
Cel ennuvolat a una alçada de 10000 ft
tempesta, pluja

TAF: VTSK 232300Z 2400/2424 25007KT 8000 FEW020 PROB30 TEMPO 2407/2413 VRB10G20KT 5000 TSRA FEW016CB SCT018 BKN100

Observacions i pronòstics meteorològics de més de 4000 aeroports (METAR i TAF).

Les estacions disponibles són els punts grocs i vermells al mapa.

Posi el ratolí al punt desitjat per veure el nom de l'estació.

Feu clic per veure les observacions i els pronòstics meteorològics.

Per canviar el mapa: feu clic els botons verds amb una creu de color negre per apropar; al botó verd amb un guió per allunyar la imatge; o en les fletxes verdes per a mapes adjacents.


METAR-TAF: